Szafir — 5BFC3 — position and weather

sailwx.info

Track history (hours):
 
Tides and Currents Weather Stations Pressure Air Temp Water Temp Dewpoint Dewpoint Depression Visibility Wind Speed Wind Dir Waves Ship Positions

Szafir

Last reported at 2016-Aug-31 13:34 UTC. Time now 2016-Sep-01 01:59 UTC.
Position N 57°24' E 008°55'.

Length 113 m; draft 8.7 m.

Type: Ship (hazmat cat A). MMSI: 209366000.

Date/timePositionNaut miles runAvg speedWind from/ knotsBaromVisibWave heightAir tempDewpointWater temp
2016-Aug-31 13:34N 57°24' E 008°55'1111.1
2016-Aug-31 12:34N 57°29' E 009°13'1611.5
2016-Aug-31 11:09N 57°38' E 009°39'3411.0
2016-Aug-31 08:03N 57°49' E 010°39'610.6
2016-Aug-31 07:27N 57°46' E 010°50'1112.0
2016-Aug-31 06:33N 57°39' E 011°05'7710.9
2016-Aug-30 23:32N 56°23' E 011°30'6410.7
2016-Aug-30 17:29N 55°21' E 011°02'1011.1
2016-Aug-30 16:33N 55°10' E 011°04'1111.5
2016-Aug-30 15:33N 54°59' E 011°01'1010.5
2016-Aug-30 14:34N 54°50' E 010°52'1010.0
2016-Aug-30 13:34N 54°40' E 010°58'1111.2
2016-Aug-30 12:34N 54°35' E 011°15'1110.7
2016-Aug-30 11:34N 54°30' E 011°32'1010.4
2016-Aug-30 10:34N 54°26' E 011°48'1110.7
2016-Aug-30 09:33N 54°27' E 012°07'1110.8
2016-Aug-30 08:33N 54°37' E 012°15'5811.6
2016-Aug-30 03:33N 55°01' E 013°46'1111.5
2016-Aug-30 02:34N 55°05' E 014°05'1211.7
2016-Aug-30 01:33N 55°14' E 014°18'1211.7
2016-Aug-30 00:33N 55°23' E 014°31'1111.4
2016-Aug-29 23:33N 55°30' E 014°46'1111.2
2016-Aug-29 22:33N 55°36' E 015°03'33511.5
2016-Aug-28 17:31N 59°30' E 022°29'1612.6
2016-Aug-28 16:13N 59°35' E 023°00'1012.8
2016-Aug-28 15:24N 59°38' E 023°20'1112.6
2016-Aug-28 14:34N 59°41' E 023°40'1312.8
2016-Aug-28 13:33N 59°45' E 024°04'7512.5
2016-Aug-28 07:34N 60°01' E 026°30'3611.4
2016-Aug-28 04:22N 60°11' E 027°40'810.0
2016-Aug-28 03:34N 60°11' E 027°56'1010.1
2016-Aug-28 02:33N 60°08' E 028°16'1010.0
2016-Aug-28 01:33N 60°03' E 028°33'1010.2
2016-Aug-28 00:33N 60°03' E 028°54'22 9.0
2016-Aug-27 22:04N 60°00' E 029°38'5 9.1
2016-Aug-27 21:33N 59°58' E 029°47'1110.7
2016-Aug-27 20:33N 59°54' E 030°06'4 3.6
2016-Aug-27 19:33N 59°53' E 030°13'0 0.0
2016-Aug-27 18:33N 59°53' E 030°13'0 0.0
2016-Aug-27 17:33N 59°53' E 030°13'0 0.0
2016-Aug-27 16:33N 59°53' E 030°13'0 0.0
2016-Aug-27 15:33N 59°53' E 030°13'0 0.0
2016-Aug-27 14:30N 59°53' E 030°13'0 0.0
2016-Aug-27 13:33N 59°53' E 030°13'0 0.0
2016-Aug-27 12:33N 59°53' E 030°13'0 0.0
2016-Aug-27 11:33N 59°53' E 030°13'0 0.0
2016-Aug-27 10:33N 59°53' E 030°13'1 0.7
2016-Aug-27 09:31N 59°53' E 030°12'0 0.0
2016-Aug-27 08:31N 59°53' E 030°12'0 0.0
2016-Aug-27 07:31N 59°53' E 030°12'0 0.0
2016-Aug-27 06:31N 59°53' E 030°12'0 0.0
2016-Aug-27 04:31N 59°53' E 030°12'0 0.0
2016-Aug-27 03:31N 59°53' E 030°12'0 0.0
2016-Aug-27 02:31N 59°53' E 030°12'0 0.0
2016-Aug-27 01:31N 59°53' E 030°12'0 0.0
2016-Aug-27 00:31N 59°53' E 030°12'0 0.0
2016-Aug-26 23:31N 59°53' E 030°12'0 0.0
2016-Aug-26 22:31N 59°53' E 030°12'0 0.0
2016-Aug-26 21:31N 59°53' E 030°12'0 0.0
2016-Aug-26 20:31N 59°53' E 030°12'0 0.0
2016-Aug-26 19:31N 59°53' E 030°12'0 0.0
2016-Aug-26 18:31N 59°53' E 030°12'0 0.0
2016-Aug-26 17:31N 59°53' E 030°12'0 0.0
2016-Aug-26 16:31N 59°53' E 030°12'0 0.0
2016-Aug-26 15:31N 59°53' E 030°12'0 0.0
2016-Aug-26 14:31N 59°53' E 030°12'0 0.0
2016-Aug-26 13:28N 59°53' E 030°12'0 0.0
2016-Aug-26 12:31N 59°53' E 030°12'0 0.0
2016-Aug-26 11:31N 59°53' E 030°12'0 0.0
2016-Aug-26 10:31N 59°53' E 030°12'0 0.0
2016-Aug-26 09:28N 59°53' E 030°12'0 0.0
2016-Aug-26 08:31N 59°53' E 030°12'0 0.0
2016-Aug-26 07:31N 59°53' E 030°12'0 0.0
2016-Aug-26 06:28N 59°53' E 030°12'0 0.0
2016-Aug-26 04:31N 59°53' E 030°12'2 2.4
2016-Aug-26 03:33N 59°54' E 030°08'1110.8
2016-Aug-26 02:33N 59°58' E 029°48'25 3.0
2016-Aug-25 18:15N 60°02' E 028°59'1013.6
2016-Aug-25 17:33N 60°02' E 028°40'1313.1
2016-Aug-25 16:34N 60°07' E 028°15'1313.5
2016-Aug-25 15:34N 60°11' E 027°49'1111.1
2016-Aug-25 14:33N 60°09' E 027°27'1413.0
2016-Aug-25 13:31N 60°19' E 027°09'9 9.3
2016-Aug-25 12:33N 60°25' E 026°55'0 0.0
2016-Aug-25 11:33N 60°25' E 026°55'0 0.0
2016-Aug-25 10:33N 60°25' E 026°55'0 0.0
2016-Aug-25 09:33N 60°25' E 026°55'0 0.0
2016-Aug-25 08:33N 60°25' E 026°55'0 0.0
2016-Aug-25 07:33N 60°25' E 026°55'0 0.0
2016-Aug-25 06:33N 60°25' E 026°55'0 0.0
2016-Aug-25 04:33N 60°25' E 026°55'0 0.0
2016-Aug-25 03:33N 60°25' E 026°55'0 0.0
2016-Aug-25 02:33N 60°25' E 026°55'0 0.0
2016-Aug-25 01:33N 60°25' E 026°55'0 0.0
2016-Aug-25 00:33N 60°25' E 026°55'0 0.0
2016-Aug-24 23:33N 60°25' E 026°55'0 0.0
2016-Aug-24 22:33N 60°25' E 026°55'0 0.0
2016-Aug-24 21:33N 60°25' E 026°55'0 0.0
2016-Aug-24 20:33N 60°25' E 026°55'0 0.0
2016-Aug-24 19:33N 60°25' E 026°55'0 0.0
2016-Aug-24 18:33N 60°25' E 026°55'0 0.0
2016-Aug-24 17:33N 60°25' E 026°55'0 0.0
2016-Aug-24 16:33N 60°25' E 026°55'0 0.0
2016-Aug-24 15:33N 60°25' E 026°55'0 0.0
2016-Aug-24 14:33N 60°25' E 026°55'0 0.0
2016-Aug-24 13:30N 60°25' E 026°55'0 0.0
2016-Aug-24 12:33N 60°25' E 026°55'0 0.0
2016-Aug-24 11:33N 60°25' E 026°55'0 0.0
2016-Aug-24 10:33N 60°25' E 026°55'0 0.0
2016-Aug-24 09:33N 60°25' E 026°55'0 0.0
2016-Aug-24 08:33N 60°25' E 026°55'0 0.0
2016-Aug-24 07:33N 60°25' E 026°55'3 2.7
2016-Aug-24 06:33N 60°24' E 026°51'2412.0
2016-Aug-24 04:33N 60°06' E 026°18'1211.8
2016-Aug-24 03:32N 59°57' E 026°02'1611.5
2016-Aug-24 02:08N 59°51' E 025°33'2411.9
2016-Aug-24 00:06N 59°45' E 024°45'1011.9
2016-Aug-23 23:14N 59°43' E 024°25'911.7
2016-Aug-23 22:29N 59°41' E 024°09'1211.8
2016-Aug-23 21:28N 59°37' E 023°47'1212.5
2016-Aug-23 20:31N 59°33' E 023°24'1212.1
2016-Aug-23 19:32N 59°29' E 023°02'1212.5
2016-Aug-23 18:33N 59°25' E 022°39'30811.7
2016-Aug-22 16:09N 55°47' E 015°54'711.5
2016-Aug-22 15:31N 55°43' E 015°43'1312.0
2016-Aug-22 14:25N 55°37' E 015°23'1011.9
2016-Aug-22 13:33N 55°32' E 015°06'1211.9
2016-Aug-22 12:33N 55°26' E 014°48'1211.7
2016-Aug-22 11:34N 55°19' E 014°32'1211.9
2016-Aug-22 10:34N 55°10' E 014°19'1312.9
2016-Aug-22 09:33N 55°10' E 013°56'1412.7
2016-Aug-22 08:29N 55°12' E 013°32'1212.6
2016-Aug-22 07:32N 55°13' E 013°12'1212.3
2016-Aug-22 06:33N 55°15' E 012°51'10 9.9
2016-Aug-22 05:33N 55°22' E 012°39'1212.4
2016-Aug-22 04:33N 55°34' E 012°42'9 9.3
2016-Aug-22 03:33N 55°44' E 012°41'1111.3
2016-Aug-22 02:33N 55°55' E 012°39'1110.8
2016-Aug-22 01:33N 56°05' E 012°34'1211.9
2016-Aug-22 00:33N 56°11' E 012°16'4013.2
2016-Aug-21 21:33N 56°05' E 011°05'1412.7
2016-Aug-21 20:26N 56°03' E 010°40'1214.1
2016-Aug-21 19:34N 56°08' E 010°20'4 3.5
2016-Aug-21 18:31N 56°09' E 010°13'0 0.0
2016-Aug-21 17:28N 56°09' E 010°13'0 0.0
2016-Aug-21 16:31N 56°09' E 010°13'0 0.0
2016-Aug-21 15:31N 56°09' E 010°13'0 0.0
2016-Aug-21 14:31N 56°09' E 010°13'  
Track history (hours):
 
Tides and Currents Weather Stations Pressure Air Temp Water Temp Dewpoint Dewpoint Depression Visibility Wind Speed Wind Dir Waves Ship Positions

Szafir

Last reported at 2016-Aug-31 13:34 UTC. Time now 2016-Sep-01 01:59 UTC.
Position N 57°24' E 008°55'.

Length 113 m; draft 8.7 m.

Type: Ship (hazmat cat A). MMSI: 209366000.

Date/timePositionNaut miles runAvg speedWind from/ knotsBaromVisibWave heightAir tempDewpointWater temp
2016-Aug-31 13:34N 57°24' E 008°55'1111.1
2016-Aug-31 12:34N 57°29' E 009°13'1611.5
2016-Aug-31 11:09N 57°38' E 009°39'3411.0
2016-Aug-31 08:03N 57°49' E 010°39'610.6
2016-Aug-31 07:27N 57°46' E 010°50'1112.0
2016-Aug-31 06:33N 57°39' E 011°05'7710.9
2016-Aug-30 23:32N 56°23' E 011°30'6410.7
2016-Aug-30 17:29N 55°21' E 011°02'1011.1
2016-Aug-30 16:33N 55°10' E 011°04'1111.5
2016-Aug-30 15:33N 54°59' E 011°01'1010.5
2016-Aug-30 14:34N 54°50' E 010°52'1010.0
2016-Aug-30 13:34N 54°40' E 010°58'1111.2
2016-Aug-30 12:34N 54°35' E 011°15'1110.7
2016-Aug-30 11:34N 54°30' E 011°32'1010.4
2016-Aug-30 10:34N 54°26' E 011°48'1110.7
2016-Aug-30 09:33N 54°27' E 012°07'1110.8
2016-Aug-30 08:33N 54°37' E 012°15'5811.6
2016-Aug-30 03:33N 55°01' E 013°46'1111.5
2016-Aug-30 02:34N 55°05' E 014°05'1211.7
2016-Aug-30 01:33N 55°14' E 014°18'1211.7
2016-Aug-30 00:33N 55°23' E 014°31'1111.4
2016-Aug-29 23:33N 55°30' E 014°46'1111.2
2016-Aug-29 22:33N 55°36' E 015°03'33511.5
2016-Aug-28 17:31N 59°30' E 022°29'1612.6
2016-Aug-28 16:13N 59°35' E 023°00'1012.8
2016-Aug-28 15:24N 59°38' E 023°20'1112.6
2016-Aug-28 14:34N 59°41' E 023°40'1312.8
2016-Aug-28 13:33N 59°45' E 024°04'7512.5
2016-Aug-28 07:34N 60°01' E 026°30'3611.4
2016-Aug-28 04:22N 60°11' E 027°40'810.0
2016-Aug-28 03:34N 60°11' E 027°56'1010.1
2016-Aug-28 02:33N 60°08' E 028°16'1010.0
2016-Aug-28 01:33N 60°03' E 028°33'1010.2
2016-Aug-28 00:33N 60°03' E 028°54'22 9.0
2016-Aug-27 22:04N 60°00' E 029°38'5 9.1
2016-Aug-27 21:33N 59°58' E 029°47'1110.7
2016-Aug-27 20:33N 59°54' E 030°06'4 3.6
2016-Aug-27 19:33N 59°53' E 030°13'0 0.0
2016-Aug-27 18:33N 59°53' E 030°13'0 0.0
2016-Aug-27 17:33N 59°53' E 030°13'0 0.0
2016-Aug-27 16:33N 59°53' E 030°13'0 0.0
2016-Aug-27 15:33N 59°53' E 030°13'0 0.0
2016-Aug-27 14:30N 59°53' E 030°13'0 0.0
2016-Aug-27 13:33N 59°53' E 030°13'0 0.0
2016-Aug-27 12:33N 59°53' E 030°13'0 0.0
2016-Aug-27 11:33N 59°53' E 030°13'0 0.0
2016-Aug-27 10:33N 59°53' E 030°13'1 0.7
2016-Aug-27 09:31N 59°53' E 030°12'0 0.0
2016-Aug-27 08:31N 59°53' E 030°12'0 0.0
2016-Aug-27 07:31N 59°53' E 030°12'0 0.0
2016-Aug-27 06:31N 59°53' E 030°12'0 0.0
2016-Aug-27 04:31N 59°53' E 030°12'0 0.0
2016-Aug-27 03:31N 59°53' E 030°12'0 0.0
2016-Aug-27 02:31N 59°53' E 030°12'0 0.0
2016-Aug-27 01:31N 59°53' E 030°12'0 0.0
2016-Aug-27 00:31N 59°53' E 030°12'0 0.0
2016-Aug-26 23:31N 59°53' E 030°12'0 0.0
2016-Aug-26 22:31N 59°53' E 030°12'0 0.0
2016-Aug-26 21:31N 59°53' E 030°12'0 0.0
2016-Aug-26 20:31N 59°53' E 030°12'0 0.0
2016-Aug-26 19:31N 59°53' E 030°12'0 0.0
2016-Aug-26 18:31N 59°53' E 030°12'0 0.0
2016-Aug-26 17:31N 59°53' E 030°12'0 0.0
2016-Aug-26 16:31N 59°53' E 030°12'0 0.0
2016-Aug-26 15:31N 59°53' E 030°12'0 0.0
2016-Aug-26 14:31N 59°53' E 030°12'0 0.0
2016-Aug-26 13:28N 59°53' E 030°12'0 0.0
2016-Aug-26 12:31N 59°53' E 030°12'0 0.0
2016-Aug-26 11:31N 59°53' E 030°12'0 0.0
2016-Aug-26 10:31N 59°53' E 030°12'0 0.0
2016-Aug-26 09:28N 59°53' E 030°12'0 0.0
2016-Aug-26 08:31N 59°53' E 030°12'0 0.0
2016-Aug-26 07:31N 59°53' E 030°12'0 0.0
2016-Aug-26 06:28N 59°53' E 030°12'0 0.0
2016-Aug-26 04:31N 59°53' E 030°12'2 2.4
2016-Aug-26 03:33N 59°54' E 030°08'1110.8
2016-Aug-26 02:33N 59°58' E 029°48'25 3.0
2016-Aug-25 18:15N 60°02' E 028°59'1013.6
2016-Aug-25 17:33N 60°02' E 028°40'1313.1
2016-Aug-25 16:34N 60°07' E 028°15'1313.5
2016-Aug-25 15:34N 60°11' E 027°49'1111.1
2016-Aug-25 14:33N 60°09' E 027°27'1413.0
2016-Aug-25 13:31N 60°19' E 027°09'9 9.3
2016-Aug-25 12:33N 60°25' E 026°55'0 0.0
2016-Aug-25 11:33N 60°25' E 026°55'0 0.0
2016-Aug-25 10:33N 60°25' E 026°55'0 0.0
2016-Aug-25 09:33N 60°25' E 026°55'0 0.0
2016-Aug-25 08:33N 60°25' E 026°55'0 0.0
2016-Aug-25 07:33N 60°25' E 026°55'0 0.0
2016-Aug-25 06:33N 60°25' E 026°55'0 0.0
2016-Aug-25 04:33N 60°25' E 026°55'0 0.0
2016-Aug-25 03:33N 60°25' E 026°55'0 0.0
2016-Aug-25 02:33N 60°25' E 026°55'0 0.0
2016-Aug-25 01:33N 60°25' E 026°55'0 0.0
2016-Aug-25 00:33N 60°25' E 026°55'0 0.0
2016-Aug-24 23:33N 60°25' E 026°55'0 0.0
2016-Aug-24 22:33N 60°25' E 026°55'0 0.0
2016-Aug-24 21:33N 60°25' E 026°55'0 0.0
2016-Aug-24 20:33N 60°25' E 026°55'0 0.0
2016-Aug-24 19:33N 60°25' E 026°55'0 0.0
2016-Aug-24 18:33N 60°25' E 026°55'0 0.0
2016-Aug-24 17:33N 60°25' E 026°55'0 0.0
2016-Aug-24 16:33N 60°25' E 026°55'0 0.0
2016-Aug-24 15:33N 60°25' E 026°55'0 0.0
2016-Aug-24 14:33N 60°25' E 026°55'0 0.0
2016-Aug-24 13:30N 60°25' E 026°55'0 0.0
2016-Aug-24 12:33N 60°25' E 026°55'0 0.0
2016-Aug-24 11:33N 60°25' E 026°55'0 0.0
2016-Aug-24 10:33N 60°25' E 026°55'0 0.0
2016-Aug-24 09:33N 60°25' E 026°55'0 0.0
2016-Aug-24 08:33N 60°25' E 026°55'0 0.0
2016-Aug-24 07:33N 60°25' E 026°55'3 2.7
2016-Aug-24 06:33N 60°24' E 026°51'2412.0
2016-Aug-24 04:33N 60°06' E 026°18'1211.8
2016-Aug-24 03:32N 59°57' E 026°02'1611.5
2016-Aug-24 02:08N 59°51' E 025°33'2411.9
2016-Aug-24 00:06N 59°45' E 024°45'1011.9
2016-Aug-23 23:14N 59°43' E 024°25'911.7
2016-Aug-23 22:29N 59°41' E 024°09'1211.8
2016-Aug-23 21:28N 59°37' E 023°47'1212.5
2016-Aug-23 20:31N 59°33' E 023°24'1212.1
2016-Aug-23 19:32N 59°29' E 023°02'1212.5
2016-Aug-23 18:33N 59°25' E 022°39'30811.7
2016-Aug-22 16:09N 55°47' E 015°54'711.5
2016-Aug-22 15:31N 55°43' E 015°43'1312.0
2016-Aug-22 14:25N 55°37' E 015°23'1011.9
2016-Aug-22 13:33N 55°32' E 015°06'1211.9
2016-Aug-22 12:33N 55°26' E 014°48'1211.7
2016-Aug-22 11:34N 55°19' E 014°32'1211.9
2016-Aug-22 10:34N 55°10' E 014°19'1312.9
2016-Aug-22 09:33N 55°10' E 013°56'1412.7
2016-Aug-22 08:29N 55°12' E 013°32'1212.6
2016-Aug-22 07:32N 55°13' E 013°12'1212.3
2016-Aug-22 06:33N 55°15' E 012°51'10 9.9
2016-Aug-22 05:33N 55°22' E 012°39'1212.4
2016-Aug-22 04:33N 55°34' E 012°42'9 9.3
2016-Aug-22 03:33N 55°44' E 012°41'1111.3
2016-Aug-22 02:33N 55°55' E 012°39'1110.8
2016-Aug-22 01:33N 56°05' E 012°34'1211.9
2016-Aug-22 00:33N 56°11' E 012°16'4013.2
2016-Aug-21 21:33N 56°05' E 011°05'1412.7
2016-Aug-21 20:26N 56°03' E 010°40'1214.1
2016-Aug-21 19:34N 56°08' E 010°20'4 3.5
2016-Aug-21 18:31N 56°09' E 010°13'0 0.0
2016-Aug-21 17:28N 56°09' E 010°13'0 0.0
2016-Aug-21 16:31N 56°09' E 010°13'0 0.0
2016-Aug-21 15:31N 56°09' E 010°13'0 0.0
2016-Aug-21 14:31N 56°09' E 010°13'  

Dump ship's entire track history